Time;durP1;ratioP1;P1;durP2;ratioP2;P2;SDS_P1;SDS_P2;PMS_P1;PMS_P2;Temp;Humidity;BMP_temperature;BMP_pressure;BME280_temperature;BME280_humidity;BME280_pressure;Samples;Min_cycle;Max_cycle;Signal;HPM_P1;HPM_P2
2022/08/15 00:00:55;;;;;;;11.18;9.35;;;;;;;24.55;52.92;100151.25;5092272;28;20107;-56
2022/08/15 00:03:31;;;;;;;10.75;9.18;;;;;;;24.56;52.94;100143.94;5106292;28;20391;-56
2022/08/15 00:06:00;;;;;;;10.48;9.27;;;;;;;24.58;53.19;100142.69;5096369;28;20028;-56
2022/08/15 00:08:27;;;;;;;;;;;;;;;24.80;51.46;100156.16;5094601;28;20059;-56
2022/08/15 00:10:55;;;;;;;14.85;8.57;;;;;;;24.67;53.21;100159.66;5092480;28;20398;-56
2022/08/15 00:13:25;;;;;;;11.35;9.02;;;;;;;24.62;53.10;100167.59;5092102;28;20077;-56
2022/08/15 00:15:55;;;;;;;10.20;9.13;;;;;;;24.63;53.99;100163.84;5098746;28;20088;-56
2022/08/15 00:18:25;;;;;;;10.05;8.95;;;;;;;24.65;54.36;100159.03;5109272;28;20036;-56
2022/08/15 00:20:56;;;;;;;11.27;9.02;;;;;;;24.50;53.36;100159.19;5106347;28;20020;-56
2022/08/15 00:23:29;;;;;;;12.02;9.55;;;;;;;24.60;53.23;100161.53;5110383;28;20039;-56
2022/08/15 00:25:58;;;;;;;11.35;9.27;;;;;;;24.54;54.24;100159.63;5111788;28;20023;-57
2022/08/15 00:28:25;;;;;;;13.55;9.50;;;;;;;24.58;52.85;100164.44;5110837;28;20023;-56
2022/08/15 00:30:51;;;;;;;11.88;9.77;;;;;;;24.36;53.94;100162.91;5097444;28;20033;-57
2022/08/15 00:33:17;;;;;;;12.80;10.02;;;;;;;24.37;52.95;100162.69;5110285;28;20033;-56
2022/08/15 00:35:49;;;;;;;12.98;8.95;;;;;;;24.41;53.32;100155.81;5093297;28;20016;-56
2022/08/15 00:38:19;;;;;;;11.18;10.07;;;;;;;24.44;53.23;100154.56;5111149;28;20118;-56
2022/08/15 00:43:47;;;;;;;11.23;9.25;;;;;;;24.19;52.31;100155.09;5090594;28;20038;-56
2022/08/15 00:46:14;;;;;;;10.55;8.85;;;;;;;24.13;50.66;100149.63;5091267;28;20023;-56
2022/08/15 00:48:43;;;;;;;14.40;8.93;;;;;;;24.26;50.84;100155.09;5096725;28;20079;-56
2022/08/15 00:51:11;;;;;;;15.25;8.32;;;;;;;24.25;50.01;100157.00;5110675;28;20059;-56
2022/08/15 00:53:38;;;;;;;14.43;7.95;;;;;;;24.24;49.08;100158.03;5093342;28;20122;-56
2022/08/15 00:56:07;;;;;;;8.85;6.72;;;;;;;24.28;48.02;100161.19;5107192;28;20035;-56
2022/08/15 00:58:32;;;;;;;8.73;6.95;;;;;;;24.16;48.72;100166.38;5080974;28;20028;-56
2022/08/15 01:00:59;;;;;;;11.70;6.55;;;;;;;24.18;47.94;100160.75;5090563;28;20034;-57
2022/08/15 01:03:29;;;;;;;9.07;6.28;;;;;;;24.26;46.52;100164.09;5092091;28;20490;-57
2022/08/15 01:05:59;;;;;;;7.50;5.63;;;;;;;24.20;47.09;100164.06;5102047;28;20023;-56
2022/08/15 01:08:27;;;;;;;8.30;5.65;;;;;;;24.26;46.98;100166.81;5089806;28;20398;-56
2022/08/15 01:10:58;;;;;;;6.18;5.43;;;;;;;24.22;46.42;100165.56;5121531;27;20032;-56
2022/08/15 01:13:24;;;;;;;7.55;4.95;;;;;;;24.24;45.58;100155.31;5096728;28;20032;-56
2022/08/15 01:15:50;;;;;;;5.97;4.80;;;;;;;24.28;45.18;100142.16;5096092;28;20028;-56
2022/08/15 01:18:16;;;;;;;6.53;4.50;;;;;;;24.28;45.19;100149.47;5111080;28;20042;-58
2022/08/15 01:20:43;;;;;;;7.15;4.72;;;;;;;24.12;44.50;100151.53;5078253;28;20028;-56
2022/08/15 01:23:30;;;;;;;7.22;4.30;;;;;;;24.22;44.45;100159.28;5105559;28;20067;-56
2022/08/15 01:26:04;;;;;;;6.20;3.60;;;;;;;24.17;44.05;100170.75;5071325;28;20107;-57
2022/08/15 01:28:36;;;;;;;4.35;3.70;;;;;;;24.12;44.38;100162.38;5102874;28;20032;-57
2022/08/15 01:31:06;;;;;;;6.00;3.85;;;;;;;24.17;44.48;100154.44;5094533;28;20228;-57
2022/08/15 01:33:38;;;;;;;7.05;3.55;;;;;;;24.09;43.68;100157.34;5093405;28;20099;-56
2022/08/15 01:36:04;;;;;;;8.65;3.63;;;;;;;24.11;43.37;100165.28;5108680;28;20031;-57
2022/08/15 01:38:38;;;;;;;4.38;3.95;;;;;;;24.00;43.95;100161.25;5110241;28;20027;-57
2022/08/15 01:41:11;;;;;;;10.90;4.30;;;;;;;23.96;44.63;100155.41;5101721;28;20031;-56
2022/08/15 01:43:44;;;;;;;6.55;4.05;;;;;;;23.89;44.12;100159.97;5089695;28;20387;-57
2022/08/15 01:46:10;;;;;;;6.15;3.75;;;;;;;23.86;45.52;100164.97;5104057;28;20107;-56
2022/08/15 01:48:46;;;;;;;7.32;4.05;;;;;;;23.87;44.43;100181.06;5112766;28;20497;-57
2022/08/15 01:51:15;;;;;;;5.90;3.53;;;;;;;23.77;43.91;100180.59;5113904;28;20030;-57
2022/08/15 01:53:44;;;;;;;5.72;4.10;;;;;;;23.81;45.25;100173.72;5113161;28;20390;-57
2022/08/15 01:56:19;;;;;;;7.30;3.25;;;;;;;23.70;44.20;100168.81;5115765;28;20023;-57
2022/08/15 01:58:45;;;;;;;7.53;3.75;;;;;;;23.75;43.74;100169.91;5099444;28;20529;-57
2022/08/15 02:01:20;;;;;;;7.22;4.00;;;;;;;23.68;44.55;100162.72;5111503;28;20031;-57
2022/08/15 02:03:48;;;;;;;8.68;3.72;;;;;;;23.64;44.01;100165.00;5114561;28;20432;-56
2022/08/15 02:06:23;;;;;;;6.97;3.63;;;;;;;23.57;44.51;100162.25;5109897;28;20037;-56
2022/08/15 02:08:51;;;;;;;7.60;3.50;;;;;;;23.49;44.09;100158.84;5128417;27;20055;-57
2022/08/15 02:11:20;;;;;;;8.77;3.50;;;;;;;23.53;44.45;100168.25;5100070;27;20028;-56
2022/08/15 02:13:47;;;;;;;5.85;3.53;;;;;;;23.43;44.66;100165.06;5113054;28;20526;-56
2022/08/15 02:16:15;;;;;;;6.35;4.00;;;;;;;23.41;44.56;100159.81;5112363;28;20019;-57
2022/08/15 02:18:43;;;;;;;5.22;3.78;;;;;;;23.38;45.07;100172.94;5109847;28;20043;-55
2022/08/15 02:21:10;;;;;;;5.47;3.75;;;;;;;23.46;44.41;100168.22;5110850;28;20035;-56
2022/08/15 02:23:36;;;;;;;4.63;3.42;;;;;;;23.40;44.57;100158.16;5109616;28;20058;-56
2022/08/15 02:26:05;;;;;;;6.28;3.63;;;;;;;23.31;44.94;100168.31;5114362;28;20035;-56
2022/08/15 02:28:31;;;;;;;6.88;3.63;;;;;;;23.30;46.34;100163.09;5113598;28;20062;-56
2022/08/15 02:30:57;;;;;;;7.90;3.60;;;;;;;23.31;45.52;100159.34;5104442;28;20052;-56
2022/08/15 02:33:23;;;;;;;6.78;3.72;;;;;;;23.23;45.22;100159.47;5078495;28;20115;-57
2022/08/15 02:35:50;;;;;;;8.60;4.00;;;;;;;23.29;44.97;100153.25;5113123;28;20019;-56
2022/08/15 02:38:17;;;;;;;4.97;4.10;;;;;;;23.26;45.56;100157.19;5074488;28;20551;-56
2022/08/15 02:40:42;;;;;;;5.82;4.00;;;;;;;23.21;45.27;100153.44;5111442;28;20042;-57
2022/08/15 02:43:13;;;;;;;7.50;3.50;;;;;;;22.92;46.43;100147.09;5099997;28;20020;-57
2022/08/15 02:45:47;;;;;;;7.57;3.53;;;;;;;23.08;45.43;100171.25;5102646;28;20398;-57
2022/08/15 02:48:13;;;;;;;5.15;3.75;;;;;;;22.92;45.09;100136.25;5107747;28;20019;-57
2022/08/15 02:50:40;;;;;;;4.47;3.88;;;;;;;23.04;44.81;100169.97;5093092;28;20054;-57
2022/08/15 02:53:23;;;;;;;4.15;3.63;;;;;;;23.07;45.31;100166.03;5093099;28;20109;-57
2022/08/15 02:55:48;;;;;;;8.15;3.95;;;;;;;23.05;45.37;100168.91;5103140;28;20573;-56
2022/08/15 02:58:17;;;;;;;5.28;4.05;;;;;;;22.99;45.75;100167.00;5093387;28;20107;-56
2022/08/15 03:00:45;;;;;;;6.93;3.67;;;;;;;23.07;45.81;100166.03;5110321;27;20023;-56
2022/08/15 03:03:16;;;;;;;7.20;3.97;;;;;;;23.04;46.54;100163.72;5100320;28;20035;-57
2022/08/15 03:05:45;;;;;;;6.72;3.80;;;;;;;22.89;46.80;100164.59;5112460;28;20023;-57
2022/08/15 03:08:13;;;;;;;4.07;3.30;;;;;;;22.88;45.86;100181.03;5112453;28;20065;-56
2022/08/15 03:10:41;;;;;;;8.95;3.78;;;;;;;22.75;46.17;100183.63;5091483;28;20436;-57
2022/08/15 03:13:11;;;;;;;6.03;3.45;;;;;;;22.75;46.21;100184.47;5107404;28;20039;-56
2022/08/15 03:15:46;;;;;;;8.43;4.00;;;;;;;22.71;46.12;100180.47;5094644;28;20088;-57
2022/08/15 03:18:15;;;;;;;6.78;4.10;;;;;;;22.67;46.36;100185.41;5093489;28;20028;-56
2022/08/15 03:20:45;;;;;;;8.25;3.97;;;;;;;22.70;47.07;100178.75;5113475;28;20026;-56
2022/08/15 03:23:11;;;;;;;5.97;4.00;;;;;;;22.72;46.44;100175.88;5111449;28;20027;-57
2022/08/15 03:25:48;;;;;;;5.57;3.88;;;;;;;22.68;46.75;100175.44;5112824;28;20106;-56
2022/08/15 03:28:19;;;;;;;7.22;4.05;;;;;;;22.70;46.49;100173.34;5092852;28;20028;-57
2022/08/15 03:30:45;;;;;;;8.40;4.50;;;;;;;22.67;46.95;100176.44;5106713;28;20024;-56
2022/08/15 03:33:11;;;;;;;7.45;3.55;;;;;;;22.59;47.53;100174.72;5093071;28;20031;-56
2022/08/15 03:35:41;;;;;;;7.97;3.88;;;;;;;22.60;47.20;100183.69;5112264;28;20501;-56
2022/08/15 03:38:08;;;;;;;10.20;4.50;;;;;;;22.58;47.29;100172.19;5108181;28;20393;-57
2022/08/15 03:40:34;;;;;;;10.43;4.63;;;;;;;22.49;47.60;100167.91;5112556;28;20019;-57
2022/08/15 03:43:05;;;;;;;8.45;4.20;;;;;;;22.45;47.38;100176.41;5104643;28;20105;-57
2022/08/15 03:45:31;;;;;;;8.15;4.70;;;;;;;22.43;47.67;100173.06;5092306;28;20382;-56
2022/08/15 03:48:01;;;;;;;7.40;4.80;;;;;;;22.36;47.60;100177.56;5096381;28;20111;-56
2022/08/15 03:50:27;;;;;;;10.52;4.47;;;;;;;22.32;48.39;100176.25;5087511;28;20079;-57
2022/08/15 03:52:58;;;;;;;5.15;4.22;;;;;;;22.22;48.59;100190.09;5094088;28;20040;-56
2022/08/15 03:55:25;;;;;;;7.75;4.53;;;;;;;22.19;48.46;100189.66;5092557;28;20363;-56
2022/08/15 03:57:52;;;;;;;5.70;4.20;;;;;;;22.20;48.88;100194.84;5105171;28;20114;-56
2022/08/15 04:00:24;;;;;;;8.73;4.53;;;;;;;22.16;49.17;100190.81;5093879;28;20395;-57
2022/08/15 04:02:50;;;;;;;12.75;4.97;;;;;;;22.21;48.98;100196.56;5110879;28;20394;-56
2022/08/15 04:05:16;;;;;;;6.45;4.50;;;;;;;22.12;49.28;100184.13;5105523;28;20043;-56
2022/08/15 04:07:41;;;;;;;9.50;4.60;;;;;;;22.28;49.13;100176.84;5098795;28;20030;-56
2022/08/15 04:10:11;;;;;;;7.82;4.80;;;;;;;22.15;50.29;100172.91;5093307;28;20032;-57
2022/08/15 04:12:40;;;;;;;6.93;4.88;;;;;;;22.19;50.21;100178.81;5101184;28;20051;-56
2022/08/15 04:15:10;;;;;;;10.57;4.95;;;;;;;22.23;50.27;100172.81;5096269;28;20059;-56
2022/08/15 04:17:37;;;;;;;5.80;4.70;;;;;;;22.25;50.36;100178.06;5091361;28;20032;-55
2022/08/15 04:20:04;;;;;;;5.57;4.40;;;;;;;22.16;50.87;100171.03;5097398;28;20023;-56
2022/08/15 04:22:35;;;;;;;6.32;5.43;;;;;;;22.19;51.03;100181.50;5112907;28;20428;-56
2022/08/15 04:25:09;;;;;;;7.70;4.72;;;;;;;22.21;51.13;100179.47;5109767;28;20110;-56
2022/08/15 04:27:35;;;;;;;9.85;4.95;;;;;;;22.20;52.69;100185.91;5107437;28;20039;-56
2022/08/15 04:30:00;;;;;;;9.93;5.10;;;;;;;22.19;52.21;100182.34;5092702;28;20032;-55
2022/08/15 04:32:28;;;;;;;9.00;5.00;;;;;;;22.12;52.39;100189.53;5097951;28;20043;-56
2022/08/15 04:34:58;;;;;;;11.07;4.50;;;;;;;22.10;53.34;100185.31;5100766;28;20043;-55
2022/08/15 04:37:26;;;;;;;14.13;4.88;;;;;;;22.18;53.16;100188.81;5092477;28;20024;-56
2022/08/15 04:39:53;;;;;;;8.55;4.85;;;;;;;22.16;53.17;100195.41;5091723;28;20020;-56
2022/08/15 04:42:19;;;;;;;9.90;5.05;;;;;;;22.17;53.38;100189.81;5099849;28;20027;-56
2022/08/15 04:44:48;;;;;;;8.63;5.43;;;;;;;22.12;54.23;100189.53;5096090;28;20028;-56
2022/08/15 04:47:15;;;;;;;9.02;5.30;;;;;;;22.07;54.14;100180.28;5095200;28;20491;-56
2022/08/15 04:49:43;;;;;;;8.05;5.10;;;;;;;22.16;53.91;100192.69;5098180;28;20387;-56
2022/08/15 04:52:20;;;;;;;8.07;5.72;;;;;;;22.14;54.24;100192.03;5112478;28;20084;-56
2022/08/15 04:54:46;;;;;;;7.63;5.05;;;;;;;22.09;54.93;100181.78;5097010;28;20031;-56
2022/08/15 04:57:15;;;;;;;8.07;5.43;;;;;;;22.08;55.03;100184.66;5091118;28;20028;-56
2022/08/15 04:59:40;;;;;;;;;;;;;;;22.27;53.14;100191.41;5074248;28;20036;-56
2022/08/15 05:02:09;;;;;;;7.45;5.10;;;;;;;22.13;55.11;100196.63;5101729;28;20362;-56
2022/08/15 05:04:35;;;;;;;11.73;5.80;;;;;;;22.17;55.30;100207.94;5100714;28;20032;-56
2022/08/15 05:07:01;;;;;;;9.13;5.07;;;;;;;22.12;55.28;100200.38;5109945;28;20124;-56
2022/08/15 05:09:29;;;;;;;11.43;5.43;;;;;;;22.18;55.31;100190.69;5098380;28;20469;-56
2022/08/15 05:11:55;;;;;;;9.50;5.47;;;;;;;22.22;55.51;100186.56;5088475;28;20078;-56
2022/08/15 05:14:20;;;;;;;11.57;5.45;;;;;;;22.29;55.17;100183.91;5108367;28;20035;-56
2022/08/15 05:16:47;;;;;;;11.73;6.15;;;;;;;22.28;55.61;100204.75;5098238;28;20047;-56
2022/08/15 05:19:12;;;;;;;10.00;5.10;;;;;;;22.27;55.37;100194.97;5099708;28;20027;-56
2022/08/15 05:21:39;;;;;;;12.82;5.82;;;;;;;22.33;55.88;100212.34;5107714;28;20024;-56
2022/08/15 05:24:05;;;;;;;8.07;5.43;;;;;;;;;;5098568;28;20520;-56
2022/08/15 05:26:31;;;;;;;9.57;5.15;;;;;;;22.27;56.02;100215.81;5102560;28;20027;-57
2022/08/15 05:28:57;;;;;;;10.95;4.85;;;;;;;22.21;56.26;100220.09;5095502;28;20370;-56
2022/08/15 05:31:23;;;;;;;12.73;5.38;;;;;;;22.28;56.81;100228.31;5104296;28;20092;-57
2022/08/15 05:33:49;;;;;;;8.60;5.38;;;;;;;22.25;58.87;100224.09;5078974;28;20020;-56
2022/08/15 05:36:17;;;;;;;11.02;5.63;;;;;;;22.33;58.96;100220.47;5103913;28;20109;-56
2022/08/15 05:38:46;;;;;;;10.73;5.57;;;;;;;22.19;58.42;100222.16;5075185;28;20449;-56
2022/08/15 05:41:49;;;;;;;8.80;5.38;;;;;;;22.29;57.78;100221.84;5075088;28;20019;-56
2022/08/15 05:44:33;;;;;;;9.43;5.95;;;;;;;;;;5079523;28;20032;-57
2022/08/15 05:47:17;;;;;;;8.43;4.95;;;;;;;22.23;58.68;100223.44;5100490;28;20030;-56
2022/08/15 05:49:51;;;;;;;8.35;5.38;;;;;;;22.16;58.80;100219.78;5099798;28;20098;-56
2022/08/15 05:52:19;;;;;;;7.20;5.45;;;;;;;22.22;59.06;100228.03;5107646;28;20130;-56
2022/08/15 05:55:15;;;;;;;7.38;5.32;;;;;;;22.26;58.94;100228.47;5101329;28;20023;-56
2022/08/15 05:58:05;;;;;;;12.50;5.80;;;;;;;22.32;57.70;100224.19;5108179;28;20049;-57
2022/08/15 06:00:33;;;;;;;6.43;4.30;;;;;;;22.28;59.06;100226.44;5094227;28;20067;-56
2022/08/15 06:03:12;;;;;;;9.63;4.97;;;;;;;22.25;57.51;100229.53;5107792;28;20028;-56
2022/08/15 06:05:47;;;;;;;7.38;4.45;;;;;;;22.27;58.31;100232.91;5110334;28;20111;-57
2022/08/15 06:08:32;;;;;;;10.95;5.20;;;;;;;22.29;57.51;100229.97;5107105;28;20080;-56
2022/08/15 06:11:08;;;;;;;12.38;5.03;;;;;;;22.22;58.13;100238.88;5070789;28;20418;-57
2022/08/15 06:13:43;;;;;;;8.90;5.57;;;;;;;22.21;57.94;100231.78;5080618;28;20026;-57
2022/08/15 06:16:27;;;;;;;9.75;5.13;;;;;;;22.26;58.44;100238.47;5102709;28;20390;-56
2022/08/15 06:18:55;;;;;;;6.93;4.75;;;;;;;22.22;58.57;100224.47;5097657;28;20042;-57
2022/08/15 06:21:41;;;;;;;11.63;4.97;;;;;;;22.34;58.45;100238.41;5097366;28;20031;-56
2022/08/15 06:24:07;;;;;;;8.32;4.93;;;;;;;22.30;59.01;100235.22;5098344;28;20062;-57
2022/08/15 06:26:44;;;;;;;9.38;4.93;;;;;;;22.35;59.48;100229.22;5109870;28;20081;-56
2022/08/15 06:29:24;;;;;;;8.90;5.25;;;;;;;22.43;58.42;100237.25;5099345;28;20031;-57
2022/08/15 06:31:57;;;;;;;6.05;5.30;;;;;;;22.36;59.41;100234.47;5102673;28;20022;-56
2022/08/15 06:34:34;;;;;;;6.55;4.88;;;;;;;22.38;58.85;100240.56;5102653;28;20470;-56
2022/08/15 06:37:06;;;;;;;10.15;4.75;;;;;;;22.37;59.59;100240.72;5100763;28;20183;-57
2022/08/15 06:39:44;;;;;;;10.30;5.60;;;;;;;22.37;59.42;100233.44;5085474;28;20089;-57
2022/08/15 06:42:25;;;;;;;10.32;4.95;;;;;;;22.39;59.79;100230.53;5093011;28;20126;-57
2022/08/15 06:44:55;;;;;;;6.95;4.88;;;;;;;22.26;60.21;100224.94;5093797;28;20043;-56
2022/08/15 06:47:23;;;;;;;10.43;5.63;;;;;;;22.30;60.17;100231.69;5081948;28;20036;-56
2022/08/15 06:49:56;;;;;;;8.82;5.07;;;;;;;22.36;60.04;100239.88;5092757;28;20040;-56
2022/08/15 06:52:22;;;;;;;10.52;4.97;;;;;;;22.38;60.68;100239.69;5111995;28;20023;-55
2022/08/15 06:54:47;;;;;;;7.80;4.65;;;;;;;22.38;60.54;100240.56;5114368;28;20061;-55
2022/08/15 06:57:24;;;;;;;7.20;4.85;;;;;;;22.44;60.67;100242.50;5101632;28;20020;-55
2022/08/15 07:00:09;;;;;;;9.43;5.50;;;;;;;22.49;60.41;100244.63;5074134;28;20059;-55
2022/08/15 07:03:17;;;;;;;8.15;6.10;;;;;;;22.52;60.46;100248.84;5117568;27;20017;-56
2022/08/15 07:05:50;;;;;;;8.20;5.78;;;;;;;22.65;60.01;100241.72;5060762;28;20478;-56
2022/08/15 07:08:22;;;;;;;12.63;5.63;;;;;;;22.75;59.89;100237.84;5114503;28;20065;-56
2022/08/15 07:10:55;;;;;;;7.05;5.40;;;;;;;23.02;59.28;100239.00;5094795;28;20364;-56
2022/08/15 07:13:28;;;;;;;9.85;5.60;;;;;;;23.17;58.86;100226.22;5092142;28;20119;-56
2022/08/15 07:16:08;;;;;;;12.50;5.55;;;;;;;23.30;58.53;100229.06;5094870;28;20031;-57
2022/08/15 07:18:44;;;;;;;9.15;6.32;;;;;;;23.32;58.46;100223.44;5094022;28;20024;-56
2022/08/15 07:21:14;;;;;;;9.45;6.15;;;;;;;23.30;58.75;100226.34;5092895;28;20040;-56
2022/08/15 07:24:08;;;;;;;10.13;6.20;;;;;;;23.33;58.33;100231.38;5105621;28;20019;-56
2022/08/15 07:26:46;;;;;;;8.90;6.22;;;;;;;23.23;58.94;100230.84;5101082;28;20059;-55
2022/08/15 07:29:35;;;;;;;10.02;5.63;;;;;;;23.33;58.94;100235.97;5103408;28;20061;-56
2022/08/15 07:32:24;;;;;;;11.45;6.75;;;;;;;23.45;58.67;100228.97;5113878;28;20024;-55
2022/08/15 07:34:55;;;;;;;;;;;;;;;23.57;58.28;100232.00;5097892;28;20386;-61
2022/08/15 07:37:23;;;;;;;9.23;7.05;;;;;;;23.50;59.08;100221.09;5091888;28;20336;-60
2022/08/15 07:39:59;;;;;;;10.43;6.30;;;;;;;23.55;58.67;100224.03;5092178;28;20030;-60
2022/08/15 07:42:25;;;;;;;13.55;6.40;;;;;;;23.61;58.08;100230.56;5100519;28;20039;-59
2022/08/15 07:44:59;;;;;;;12.52;6.80;;;;;;;23.71;57.85;100239.25;5109872;28;20449;-58
2022/08/15 07:47:31;;;;;;;11.25;7.07;;;;;;;23.78;57.55;100231.13;5094840;28;20027;-59
2022/08/15 07:50:42;;;;;;;11.25;6.07;;;;;;;23.87;57.43;100232.66;5093161;28;20505;-59
2022/08/15 07:53:16;;;;;;;15.77;7.13;;;;;;;23.93;56.89;100240.00;5071546;28;20025;-58
2022/08/15 07:56:04;;;;;;;15.95;7.30;;;;;;;23.92;56.96;100223.94;5102024;28;20024;-58
2022/08/15 07:58:32;;;;;;;12.17;6.67;;;;;;;24.02;56.59;100235.25;5100995;28;20085;-58
2022/08/15 08:01:11;;;;;;;16.52;6.85;;;;;;;23.99;56.76;100236.50;5093095;28;20032;-57
2022/08/15 08:03:40;;;;;;;14.60;5.80;;;;;;;24.00;57.29;100249.06;5091824;28;20412;-58
2022/08/15 08:06:31;;;;;;;15.02;6.72;;;;;;;24.05;56.46;100247.63;5101579;28;20035;-60
2022/08/15 08:09:11;;;;;;;9.30;6.18;;;;;;;24.07;56.78;100246.38;5103885;28;20118;-59
2022/08/15 08:11:46;;;;;;;11.80;5.90;;;;;;;24.12;56.44;100245.75;5101373;28;20024;-59
2022/08/15 08:14:28;;;;;;;8.82;5.78;;;;;;;24.09;56.95;100255.19;5111597;28;20024;-59
2022/08/15 08:16:59;;;;;;;7.47;5.90;;;;;;;24.06;56.56;100255.56;5077343;28;20360;-57
2022/08/15 08:19:34;;;;;;;9.57;5.80;;;;;;;24.07;56.69;100251.81;5092453;28;20024;-57
2022/08/15 08:22:27;;;;;;;9.73;5.85;;;;;;;24.11;56.73;100249.53;5091230;28;20528;-57
2022/08/15 08:25:14;;;;;;;12.18;6.68;;;;;;;24.00;56.90;100261.78;5095962;28;20024;-57
2022/08/15 08:28:07;;;;;;;13.43;6.72;;;;;;;23.97;56.91;100257.63;5085415;28;20551;-57
2022/08/15 08:31:02;;;;;;;10.15;6.85;;;;;;;23.94;56.93;100259.84;5096430;28;20028;-57
2022/08/15 08:33:59;;;;;;;7.85;6.55;;;;;;;23.93;56.97;100261.75;5112692;28;20043;-57
2022/08/15 08:36:34;;;;;;;12.00;6.80;;;;;;;23.84;57.94;100260.22;5085653;28;20099;-57
2022/08/15 08:39:02;;;;;;;16.35;6.50;;;;;;;23.86;57.71;100260.03;5092255;28;20055;-57
2022/08/15 08:41:49;;;;;;;8.55;6.30;;;;;;;23.76;57.56;100258.47;5084259;28;20066;-57
2022/08/15 08:44:25;;;;;;;11.30;6.53;;;;;;;23.70;58.19;100267.41;5092011;28;20536;-57
2022/08/15 08:46:59;;;;;;;11.40;6.43;;;;;;;23.69;58.12;100257.56;5089508;28;20024;-60
2022/08/15 08:49:57;;;;;;;11.32;6.63;;;;;;;23.67;58.52;100265.06;5091399;28;20052;-58
2022/08/15 08:52:39;;;;;;;18.63;7.20;;;;;;;23.65;58.38;100261.72;5089835;28;20035;-57
2022/08/15 08:55:17;;;;;;;16.40;6.80;;;;;;;23.63;59.06;100258.34;5088284;28;20051;-58
2022/08/15 08:57:50;;;;;;;22.25;7.15;;;;;;;23.64;59.00;100256.47;5080874;28;20035;-58
2022/08/15 09:00:22;;;;;;;17.98;6.88;;;;;;;23.70;58.76;100258.44;5108395;28;20385;-59
2022/08/15 09:03:00;;;;;;;12.70;6.47;;;;;;;23.72;58.75;100265.34;5071087;28;20033;-58
2022/08/15 09:05:31;;;;;;;13.75;6.13;;;;;;;23.70;58.90;100267.41;5071847;28;20395;-58
2022/08/15 09:08:12;;;;;;;9.55;5.60;;;;;;;23.70;59.01;100272.84;5071150;28;20402;-63
2022/08/15 09:10:42;;;;;;;10.70;6.55;;;;;;;23.68;58.87;100274.91;5078740;28;20131;-56
2022/08/15 09:16:02;;;;;;;17.35;7.10;;;;;;;23.63;59.05;100284.69;5088886;28;20043;-56
2022/08/15 09:19:00;;;;;;;11.10;6.70;;;;;;;23.61;58.98;100278.59;5068141;28;20044;-56
2022/08/15 09:21:26;;;;;;;11.85;7.18;;;;;;;23.68;59.02;100282.19;5060157;28;20460;-56
2022/08/15 09:23:54;;;;;;;7.20;6.50;;;;;;;23.73;59.11;100285.19;5051986;28;20516;-56
2022/08/15 09:26:28;;;;;;;9.20;8.10;;;;;;;23.80;58.73;100278.78;5034965;28;20048;-56
2022/08/15 09:29:08;;;;;;;11.25;6.97;;;;;;;23.81;58.85;100279.63;5067097;28;20037;-56
2022/08/15 09:31:38;;;;;;;8.93;6.60;;;;;;;23.64;59.40;100253.75;5044066;28;20064;-56
2022/08/15 09:34:04;;;;;;;9.40;6.60;;;;;;;23.85;59.47;100280.91;5068433;28;20185;-56
2022/08/15 09:36:45;;;;;;;8.52;7.45;;;;;;;23.91;59.54;100277.38;5048549;28;20079;-56
2022/08/15 09:39:47;;;;;;;11.75;7.60;;;;;;;23.97;58.81;100283.91;5067939;28;20123;-56
2022/08/15 09:42:27;;;;;;;10.73;6.50;;;;;;;24.01;58.88;100280.63;5048951;28;20044;-56
2022/08/15 09:45:22;;;;;;;8.90;6.88;;;;;;;24.21;58.87;100278.03;5054988;28;20033;-56
2022/08/15 09:48:00;;;;;;;12.55;6.93;;;;;;;24.41;58.34;100272.72;5057497;28;20040;-56
2022/08/15 09:51:12;;;;;;;16.33;6.85;;;;;;;24.61;58.16;100280.97;5085393;28;20406;-56
2022/08/15 09:54:06;;;;;;;10.38;6.45;;;;;;;24.57;58.01;100271.56;5079667;28;20064;-56
2022/08/15 09:56:37;;;;;;;10.05;6.22;;;;;;;24.59;58.02;100285.78;5082416;28;20436;-56
2022/08/15 09:59:23;;;;;;;14.60;7.28;;;;;;;24.62;57.37;100282.66;5077441;28;20032;-56
2022/08/15 10:01:56;;;;;;;9.90;7.50;;;;;;;24.59;57.52;100282.22;5076171;28;20405;-56
2022/08/15 10:05:02;;;;;;;10.88;6.65;;;;;;;24.63;58.01;100280.78;5076069;28;20106;-56
2022/08/15 10:07:41;;;;;;;9.25;7.00;;;;;;;24.69;57.82;100283.53;5104234;28;20035;-56
2022/08/15 10:10:16;;;;;;;10.93;7.90;;;;;;;24.68;57.09;100283.75;5103856;28;20377;-56
2022/08/15 10:13:06;;;;;;;17.67;8.95;;;;;;;24.83;56.90;100278.97;5094419;28;20101;-56
2022/08/15 10:15:44;;;;;;;17.88;8.13;;;;;;;24.83;56.52;100289.03;5093803;28;20100;-56
2022/08/15 10:18:38;;;;;;;24.17;7.97;;;;;;;24.89;56.58;100282.78;5086181;28;20035;-56
2022/08/15 10:21:20;;;;;;;14.18;7.15;;;;;;;24.95;56.30;100284.66;5094771;28;20027;-56
2022/08/15 10:23:49;;;;;;;18.02;6.72;;;;;;;24.72;56.79;100260.53;5090358;28;20129;-56
2022/08/15 10:26:24;;;;;;;;;;;;;;;25.04;55.88;100279.88;5090635;28;20074;-56
2022/08/15 10:28:59;;;;;;;11.60;6.43;;;;;;;24.85;56.40;100284.19;5089907;28;19920;-56
2022/08/15 10:31:28;;;;;;;21.38;6.82;;;;;;;24.80;55.84;100284.00;5081448;28;20020;-56
2022/08/15 10:33:58;;;;;;;12.45;6.85;;;;;;;24.73;56.86;100283.13;5093383;28;20111;-56
2022/08/15 10:36:35;;;;;;;13.98;6.55;;;;;;;24.77;55.98;100289.84;5083444;28;20032;-56
2022/08/15 10:39:07;;;;;;;16.90;7.13;;;;;;;24.68;56.29;100287.28;5103187;28;20039;-56
2022/08/15 10:41:52;;;;;;;11.63;6.38;;;;;;;24.78;56.12;100292.34;5094835;28;20020;-56
2022/08/15 10:44:51;;;;;;;16.48;6.63;;;;;;;24.63;56.48;100292.50;5101919;28;20103;-56
2022/08/15 10:47:39;;;;;;;;;;;;;;;24.72;56.42;100293.16;5094085;28;20039;-58
2022/08/15 10:50:26;;;;;;;13.02;5.55;;;;;;;24.70;56.63;100293.34;5084862;28;19918;-57
2022/08/15 10:53:22;;;;;;;11.27;5.70;;;;;;;24.66;56.65;100293.97;5105523;28;20020;-56
2022/08/15 10:55:48;;;;;;;7.50;5.95;;;;;;;24.64;56.97;100296.88;5093213;28;20020;-56
2022/08/15 10:58:20;;;;;;;12.20;6.28;;;;;;;24.63;57.08;100297.09;5096335;28;20036;-56
2022/08/15 11:00:57;;;;;;;11.35;6.10;;;;;;;24.56;57.60;100297.06;5099680;28;20024;-56
2022/08/15 11:03:49;;;;;;;12.13;5.88;;;;;;;24.60;57.14;100301.06;5113395;28;20027;-56
2022/08/15 11:06:19;;;;;;;11.52;7.15;;;;;;;24.46;56.95;100297.41;5114646;28;20031;-57
2022/08/15 11:08:50;;;;;;;12.93;6.95;;;;;;;24.56;57.26;100296.22;5101718;28;20324;-60
2022/08/15 11:11:19;;;;;;;9.80;6.40;;;;;;;24.63;57.83;100295.22;5089437;28;20027;-64
2022/08/15 11:13:55;;;;;;;10.38;6.20;;;;;;;24.74;58.11;100293.81;5107619;28;20478;-62
2022/08/15 11:16:31;;;;;;;8.57;6.18;;;;;;;24.73;56.77;100299.44;5110371;28;20101;-62
2022/08/15 11:18:58;;;;;;;11.57;6.18;;;;;;;24.83;57.18;100294.47;5091240;28;20430;-63
2022/08/15 11:21:48;;;;;;;12.43;5.93;;;;;;;24.93;56.79;100297.63;5097992;28;20023;-62
2022/08/15 11:24:16;;;;;;;9.55;6.30;;;;;;;24.94;55.85;100296.56;5089934;28;20032;-63
2022/08/15 11:26:45;;;;;;;11.55;6.53;;;;;;;24.92;55.47;100285.06;5090875;28;20448;-63
2022/08/15 11:29:21;;;;;;;8.65;5.35;;;;;;;25.05;56.36;100303.31;5091063;28;20461;-61
2022/08/15 11:31:52;;;;;;;12.23;6.20;;;;;;;25.12;55.47;100294.13;5104689;28;20076;-61
2022/08/15 11:34:21;;;;;;;8.38;5.97;;;;;;;25.20;55.31;100289.56;5102555;28;20028;-61
2022/08/15 11:36:48;;;;;;;10.10;6.47;;;;;;;25.30;55.01;100290.84;5094766;28;20200;-64
2022/08/15 11:39:18;;;;;;;9.02;6.70;;;;;;;25.32;54.37;100298.78;5103956;28;20026;-61
2022/08/15 11:41:49;;;;;;;10.93;5.72;;;;;;;25.36;54.86;100295.47;5114346;28;20020;-58
2022/08/15 11:44:19;;;;;;;8.18;6.43;;;;;;;25.46;54.59;100300.50;5103297;28;20023;-58
2022/08/15 11:46:47;;;;;;;12.55;5.85;;;;;;;25.44;54.29;100293.56;5103862;28;20020;-57
2022/08/15 11:49:23;;;;;;;9.98;5.63;;;;;;;25.50;53.86;100306.34;5085916;28;20486;-58
2022/08/15 11:51:49;;;;;;;12.82;6.60;;;;;;;25.33;54.09;100295.06;5079562;28;20028;-57
2022/08/15 11:54:15;;;;;;;10.15;5.68;;;;;;;25.41;54.22;100300.28;5093162;28;20110;-57
2022/08/15 11:56:57;;;;;;;9.50;5.97;;;;;;;25.46;54.68;100300.50;5093392;28;20111;-57
2022/08/15 11:59:34;;;;;;;12.68;6.10;;;;;;;25.54;54.96;100296.75;5093002;28;20024;-57